sensor_id;sensor_type;location;lat;lon;timestamp;pressure;altitude;pressure_sealevel;temperature;humidity
74466;BME280;62916;50.044;15.938;2024-03-29T00:01:25;97909.94;;;21.14;46.16
74466;BME280;62916;50.044;15.938;2024-03-29T00:03:56;97913.44;;;21.13;45.87
74466;BME280;62916;50.044;15.938;2024-03-29T00:06:26;97914.82;;;21.11;46.14
74466;BME280;62916;50.044;15.938;2024-03-29T00:08:56;97922.83;;;21.09;46.10
74466;BME280;62916;50.044;15.938;2024-03-29T00:11:26;97923.69;;;21.08;46.28
74466;BME280;62916;50.044;15.938;2024-03-29T00:13:57;97923.56;;;21.07;46.38
74466;BME280;62916;50.044;15.938;2024-03-29T00:16:27;97925.92;;;21.05;46.43
74466;BME280;62916;50.044;15.938;2024-03-29T00:18:58;97931.51;;;21.04;46.42
74466;BME280;62916;50.044;15.938;2024-03-29T00:21:28;97932.40;;;21.01;46.52
74466;BME280;62916;50.044;15.938;2024-03-29T00:23:58;97935.80;;;21.00;46.59
74466;BME280;62916;50.044;15.938;2024-03-29T00:26:28;97936.34;;;20.99;46.69
74466;BME280;62916;50.044;15.938;2024-03-29T00:28:59;97937.02;;;20.98;46.80
74466;BME280;62916;50.044;15.938;2024-03-29T00:31:29;97939.68;;;20.95;47.04
74466;BME280;62916;50.044;15.938;2024-03-29T00:33:59;97947.13;;;20.93;47.01
74466;BME280;62916;50.044;15.938;2024-03-29T00:36:30;97949.35;;;20.93;46.96
74466;BME280;62916;50.044;15.938;2024-03-29T00:39:00;97945.85;;;20.92;46.92
74466;BME280;62916;50.044;15.938;2024-03-29T00:41:31;97952.89;;;20.90;47.14
74466;BME280;62916;50.044;15.938;2024-03-29T00:44:02;97954.70;;;20.89;47.02
74466;BME280;62916;50.044;15.938;2024-03-29T00:46:33;97958.92;;;20.88;47.05
74466;BME280;62916;50.044;15.938;2024-03-29T00:49:03;97963.64;;;20.87;47.31
74466;BME280;62916;50.044;15.938;2024-03-29T00:51:33;97965.64;;;20.86;47.14
74466;BME280;62916;50.044;15.938;2024-03-29T00:54:04;97973.20;;;20.85;47.34
74466;BME280;62916;50.044;15.938;2024-03-29T00:56:34;97976.59;;;20.84;47.20
74466;BME280;62916;50.044;15.938;2024-03-29T00:59:04;97982.36;;;20.83;47.38
74466;BME280;62916;50.044;15.938;2024-03-29T01:01:35;97991.45;;;20.83;47.51
74466;BME280;62916;50.044;15.938;2024-03-29T01:04:05;97997.23;;;20.82;47.44
74466;BME280;62916;50.044;15.938;2024-03-29T01:06:36;97999.69;;;20.81;47.39
74466;BME280;62916;50.044;15.938;2024-03-29T01:09:09;97996.02;;;20.80;47.46
74466;BME280;62916;50.044;15.938;2024-03-29T01:11:40;97999.30;;;20.80;47.54
74466;BME280;62916;50.044;15.938;2024-03-29T01:14:11;97997.82;;;20.79;47.66
74466;BME280;62916;50.044;15.938;2024-03-29T01:16:41;97992.30;;;20.78;47.79
74466;BME280;62916;50.044;15.938;2024-03-29T01:19:11;97991.17;;;20.75;47.63
74466;BME280;62916;50.044;15.938;2024-03-29T01:21:42;97995.48;;;20.76;47.71
74466;BME280;62916;50.044;15.938;2024-03-29T01:24:13;97991.45;;;20.76;47.65
74466;BME280;62916;50.044;15.938;2024-03-29T01:26:43;97994.27;;;20.76;47.79
74466;BME280;62916;50.044;15.938;2024-03-29T01:29:13;97994.48;;;20.75;47.74
74466;BME280;62916;50.044;15.938;2024-03-29T01:31:44;97996.34;;;20.73;47.82
74466;BME280;62916;50.044;15.938;2024-03-29T01:34:14;97998.64;;;20.72;47.87
74466;BME280;62916;50.044;15.938;2024-03-29T01:36:45;97991.45;;;20.72;47.93
74466;BME280;62916;50.044;15.938;2024-03-29T01:39:16;97987.41;;;20.71;48.17
74466;BME280;62916;50.044;15.938;2024-03-29T01:41:50;97989.33;;;20.71;47.97
74466;BME280;62916;50.044;15.938;2024-03-29T01:44:20;97991.93;;;20.69;47.98
74466;BME280;62916;50.044;15.938;2024-03-29T01:46:51;97995.49;;;20.68;48.08
74466;BME280;62916;50.044;15.938;2024-03-29T01:49:21;97997.33;;;20.67;48.10
74466;BME280;62916;50.044;15.938;2024-03-29T01:51:52;98005.66;;;20.66;48.19
74466;BME280;62916;50.044;15.938;2024-03-29T01:54:22;98009.33;;;20.65;48.25
74466;BME280;62916;50.044;15.938;2024-03-29T01:56:53;98005.85;;;20.65;48.29
74466;BME280;62916;50.044;15.938;2024-03-29T01:59:24;98006.53;;;20.63;48.15
74466;BME280;62916;50.044;15.938;2024-03-29T02:01:56;97999.50;;;20.63;48.38
74466;BME280;62916;50.044;15.938;2024-03-29T02:04:26;97998.84;;;20.62;48.37
74466;BME280;62916;50.044;15.938;2024-03-29T02:06:57;97990.40;;;20.62;48.22
74466;BME280;62916;50.044;15.938;2024-03-29T02:09:28;97988.52;;;20.62;48.30
74466;BME280;62916;50.044;15.938;2024-03-29T02:11:58;97986.79;;;20.61;48.35
74466;BME280;62916;50.044;15.938;2024-03-29T02:14:28;97983.15;;;20.60;48.28
74466;BME280;62916;50.044;15.938;2024-03-29T02:16:59;97982.66;;;20.60;48.53
74466;BME280;62916;50.044;15.938;2024-03-29T02:19:29;97978.11;;;20.59;48.53
74466;BME280;62916;50.044;15.938;2024-03-29T02:22:01;97971.90;;;20.58;48.35
74466;BME280;62916;50.044;15.938;2024-03-29T02:24:34;97970.48;;;20.57;48.40
74466;BME280;62916;50.044;15.938;2024-03-29T02:27:05;97969.59;;;20.57;48.68
74466;BME280;62916;50.044;15.938;2024-03-29T02:29:37;97976.83;;;20.56;48.56
74466;BME280;62916;50.044;15.938;2024-03-29T02:32:08;97982.11;;;20.56;48.69
74466;BME280;62916;50.044;15.938;2024-03-29T02:34:38;97988.46;;;20.56;48.82
74466;BME280;62916;50.044;15.938;2024-03-29T02:37:09;97991.19;;;20.55;48.64
74466;BME280;62916;50.044;15.938;2024-03-29T02:39:39;97994.39;;;20.54;48.68
74466;BME280;62916;50.044;15.938;2024-03-29T02:42:09;97999.27;;;20.54;48.70
74466;BME280;62916;50.044;15.938;2024-03-29T02:44:39;97993.40;;;20.51;48.75
74466;BME280;62916;50.044;15.938;2024-03-29T02:47:10;97999.59;;;20.51;48.69
74466;BME280;62916;50.044;15.938;2024-03-29T02:49:40;97996.42;;;20.51;48.92
74466;BME280;62916;50.044;15.938;2024-03-29T02:52:10;98000.70;;;20.49;48.82
74466;BME280;62916;50.044;15.938;2024-03-29T02:54:41;98007.79;;;20.49;48.94
74466;BME280;62916;50.044;15.938;2024-03-29T02:57:11;98009.71;;;20.49;48.83
74466;BME280;62916;50.044;15.938;2024-03-29T02:59:42;98018.39;;;20.49;48.92
74466;BME280;62916;50.044;15.938;2024-03-29T03:02:12;98018.80;;;20.49;48.96
74466;BME280;62916;50.044;15.938;2024-03-29T03:04:43;98019.70;;;20.47;48.84
74466;BME280;62916;50.044;15.938;2024-03-29T03:07:13;98015.23;;;20.48;49.05
74466;BME280;62916;50.044;15.938;2024-03-29T03:10:16;98017.27;;;20.46;49.09
74466;BME280;62916;50.044;15.938;2024-03-29T03:13:05;98012.15;;;20.45;48.99
74466;BME280;62916;50.044;15.938;2024-03-29T03:15:35;98015.05;;;20.45;49.18
74466;BME280;62916;50.044;15.938;2024-03-29T03:18:06;98024.96;;;20.46;49.12
74466;BME280;62916;50.044;15.938;2024-03-29T03:20:36;98019.01;;;20.45;49.14
74466;BME280;62916;50.044;15.938;2024-03-29T03:23:07;98019.05;;;20.45;49.20
74466;BME280;62916;50.044;15.938;2024-03-29T03:25:37;98034.40;;;20.44;49.14
74466;BME280;62916;50.044;15.938;2024-03-29T03:28:08;98044.31;;;20.42;49.11
74466;BME280;62916;50.044;15.938;2024-03-29T03:30:40;98044.71;;;20.42;49.14
74466;BME280;62916;50.044;15.938;2024-03-29T03:33:11;98038.95;;;20.41;49.15
74466;BME280;62916;50.044;15.938;2024-03-29T03:35:41;98035.31;;;20.41;49.17
74466;BME280;62916;50.044;15.938;2024-03-29T03:38:11;98033.01;;;20.39;49.30
74466;BME280;62916;50.044;15.938;2024-03-29T03:40:41;98039.44;;;20.39;49.27
74466;BME280;62916;50.044;15.938;2024-03-29T03:43:12;98040.98;;;20.37;49.18
74466;BME280;62916;50.044;15.938;2024-03-29T03:45:42;98039.41;;;20.37;49.24
74466;BME280;62916;50.044;15.938;2024-03-29T03:48:13;98049.86;;;20.36;49.24
74466;BME280;62916;50.044;15.938;2024-03-29T03:50:44;98045.17;;;20.35;49.45
74466;BME280;62916;50.044;15.938;2024-03-29T03:53:14;98043.19;;;20.34;49.38
74466;BME280;62916;50.044;15.938;2024-03-29T03:55:44;98050.14;;;20.33;49.33
74466;BME280;62916;50.044;15.938;2024-03-29T03:58:15;98052.69;;;20.33;49.58
74466;BME280;62916;50.044;15.938;2024-03-29T04:00:48;98055.55;;;20.32;49.50
74466;BME280;62916;50.044;15.938;2024-03-29T04:03:18;98056.05;;;20.30;49.59
74466;BME280;62916;50.044;15.938;2024-03-29T04:05:49;98060.59;;;20.29;49.49
74466;BME280;62916;50.044;15.938;2024-03-29T04:08:19;98059.44;;;20.29;49.55
74466;BME280;62916;50.044;15.938;2024-03-29T04:10:50;98050.07;;;20.28;49.56
74466;BME280;62916;50.044;15.938;2024-03-29T04:13:20;98042.23;;;20.27;49.59
74466;BME280;62916;50.044;15.938;2024-03-29T04:15:50;98038.50;;;20.26;49.59
74466;BME280;62916;50.044;15.938;2024-03-29T04:18:21;98029.79;;;20.25;49.61
74466;BME280;62916;50.044;15.938;2024-03-29T04:20:58;98007.55;;;20.24;49.71
74466;BME280;62916;50.044;15.938;2024-03-29T04:23:28;97994.92;;;20.24;49.51
74466;BME280;62916;50.044;15.938;2024-03-29T04:26:00;98002.52;;;20.23;49.58
74466;BME280;62916;50.044;15.938;2024-03-29T04:28:30;98017.40;;;20.23;49.66
74466;BME280;62916;50.044;15.938;2024-03-29T04:31:01;98015.91;;;20.22;49.55
74466;BME280;62916;50.044;15.938;2024-03-29T04:33:31;98026.21;;;20.22;49.58
74466;BME280;62916;50.044;15.938;2024-03-29T04:36:04;98035.82;;;20.21;49.55
74466;BME280;62916;50.044;15.938;2024-03-29T04:38:35;98043.71;;;20.21;49.63
74466;BME280;62916;50.044;15.938;2024-03-29T04:41:05;98040.37;;;20.20;49.64
74466;BME280;62916;50.044;15.938;2024-03-29T04:43:35;98033.15;;;20.18;49.68
74466;BME280;62916;50.044;15.938;2024-03-29T04:46:09;98033.06;;;20.18;49.76
74466;BME280;62916;50.044;15.938;2024-03-29T04:48:41;98038.59;;;20.18;49.73
74466;BME280;62916;50.044;15.938;2024-03-29T04:51:12;98039.71;;;20.18;49.65
74466;BME280;62916;50.044;15.938;2024-03-29T04:53:43;98039.85;;;20.17;49.81
74466;BME280;62916;50.044;15.938;2024-03-29T04:56:13;98035.83;;;20.17;49.81
74466;BME280;62916;50.044;15.938;2024-03-29T04:58:44;98034.00;;;20.15;49.79
74466;BME280;62916;50.044;15.938;2024-03-29T05:01:15;98034.66;;;20.16;49.91
74466;BME280;62916;50.044;15.938;2024-03-29T05:03:45;98033.31;;;20.14;49.74
74466;BME280;62916;50.044;15.938;2024-03-29T05:06:15;98035.21;;;20.13;49.91
74466;BME280;62916;50.044;15.938;2024-03-29T05:08:45;98038.61;;;20.13;49.86
74466;BME280;62916;50.044;15.938;2024-03-29T05:11:16;98045.98;;;20.12;50.02
74466;BME280;62916;50.044;15.938;2024-03-29T05:13:46;98047.10;;;20.13;49.85
74466;BME280;62916;50.044;15.938;2024-03-29T05:16:17;98046.73;;;20.11;50.01
74466;BME280;62916;50.044;15.938;2024-03-29T05:18:47;98056.45;;;20.11;49.85
74466;BME280;62916;50.044;15.938;2024-03-29T05:21:18;98068.27;;;20.11;49.97
74466;BME280;62916;50.044;15.938;2024-03-29T05:23:49;98058.77;;;20.11;49.89
74466;BME280;62916;50.044;15.938;2024-03-29T05:26:19;98061.08;;;20.10;49.90
74466;BME280;62916;50.044;15.938;2024-03-29T05:28:49;98056.79;;;20.09;49.97
74466;BME280;62916;50.044;15.938;2024-03-29T05:31:20;98049.03;;;20.09;50.05
74466;BME280;62916;50.044;15.938;2024-03-29T05:33:50;98044.00;;;20.08;50.03
74466;BME280;62916;50.044;15.938;2024-03-29T05:36:21;98042.79;;;20.07;49.94
74466;BME280;62916;50.044;15.938;2024-03-29T05:38:52;98041.38;;;20.06;50.02
74466;BME280;62916;50.044;15.938;2024-03-29T05:41:23;98049.88;;;20.06;50.08
74466;BME280;62916;50.044;15.938;2024-03-29T05:43:53;98054.83;;;20.05;50.07
74466;BME280;62916;50.044;15.938;2024-03-29T05:46:24;98053.38;;;20.05;50.23
74466;BME280;62916;50.044;15.938;2024-03-29T05:48:54;98052.12;;;20.05;50.24
74466;BME280;62916;50.044;15.938;2024-03-29T05:51:24;98053.07;;;20.05;50.20
74466;BME280;62916;50.044;15.938;2024-03-29T05:53:55;98042.91;;;20.04;50.18
74466;BME280;62916;50.044;15.938;2024-03-29T05:56:26;98053.77;;;20.04;50.23
74466;BME280;62916;50.044;15.938;2024-03-29T05:58:56;98056.80;;;20.04;50.24
74466;BME280;62916;50.044;15.938;2024-03-29T06:01:26;98063.06;;;20.03;50.05
74466;BME280;62916;50.044;15.938;2024-03-29T06:03:57;98078.08;;;20.02;50.28
74466;BME280;62916;50.044;15.938;2024-03-29T06:06:33;98080.55;;;20.02;50.17
74466;BME280;62916;50.044;15.938;2024-03-29T06:09:03;98085.29;;;20.02;50.13
74466;BME280;62916;50.044;15.938;2024-03-29T06:11:34;98091.67;;;20.01;50.26
74466;BME280;62916;50.044;15.938;2024-03-29T06:14:04;98083.64;;;20.01;50.13
74466;BME280;62916;50.044;15.938;2024-03-29T06:16:53;98077.65;;;20.00;50.16
74466;BME280;62916;50.044;15.938;2024-03-29T06:19:41;98082.79;;;19.98;50.24
74466;BME280;62916;50.044;15.938;2024-03-29T06:22:11;98090.57;;;19.98;50.34
74466;BME280;62916;50.044;15.938;2024-03-29T06:24:42;98090.14;;;19.97;50.32
74466;BME280;62916;50.044;15.938;2024-03-29T06:27:12;98086.01;;;19.96;50.27
74466;BME280;62916;50.044;15.938;2024-03-29T06:29:46;98085.02;;;19.96;50.35
74466;BME280;62916;50.044;15.938;2024-03-29T06:32:17;98084.70;;;19.96;50.32
74466;BME280;62916;50.044;15.938;2024-03-29T06:34:48;98088.61;;;19.95;50.34
74466;BME280;62916;50.044;15.938;2024-03-29T06:37:18;98099.13;;;19.95;50.31
74466;BME280;62916;50.044;15.938;2024-03-29T06:39:50;98100.84;;;19.93;50.54
74466;BME280;62916;50.044;15.938;2024-03-29T06:42:21;98099.69;;;19.94;50.50
74466;BME280;62916;50.044;15.938;2024-03-29T06:44:52;98099.83;;;19.93;50.57
74466;BME280;62916;50.044;15.938;2024-03-29T06:47:24;98092.11;;;19.94;50.39
74466;BME280;62916;50.044;15.938;2024-03-29T06:49:54;98086.71;;;19.94;50.44
74466;BME280;62916;50.044;15.938;2024-03-29T06:52:25;98091.88;;;19.94;50.49
74466;BME280;62916;50.044;15.938;2024-03-29T06:54:55;98091.28;;;19.93;50.51
74466;BME280;62916;50.044;15.938;2024-03-29T06:57:26;98082.73;;;19.93;50.52
74466;BME280;62916;50.044;15.938;2024-03-29T07:00:00;98084.84;;;19.93;50.64
74466;BME280;62916;50.044;15.938;2024-03-29T07:02:32;98085.27;;;19.93;50.75
74466;BME280;62916;50.044;15.938;2024-03-29T07:05:04;98087.14;;;19.94;50.81
74466;BME280;62916;50.044;15.938;2024-03-29T07:07:39;98080.46;;;19.94;50.45
74466;BME280;62916;50.044;15.938;2024-03-29T07:10:10;98077.34;;;19.95;50.61
74466;BME280;62916;50.044;15.938;2024-03-29T07:12:41;98084.75;;;19.95;50.61
74466;BME280;62916;50.044;15.938;2024-03-29T07:15:12;98093.60;;;19.95;50.51
74466;BME280;62916;50.044;15.938;2024-03-29T07:17:42;98101.23;;;19.95;50.42
74466;BME280;62916;50.044;15.938;2024-03-29T07:20:14;98109.46;;;19.96;50.25
74466;BME280;62916;50.044;15.938;2024-03-29T07:22:44;98109.50;;;19.95;49.98
74466;BME280;62916;50.044;15.938;2024-03-29T07:25:15;98108.73;;;19.93;49.84
74466;BME280;62916;50.044;15.938;2024-03-29T07:27:46;98114.52;;;19.96;49.63
74466;BME280;62916;50.044;15.938;2024-03-29T07:30:17;98118.80;;;19.96;49.44
74466;BME280;62916;50.044;15.938;2024-03-29T07:32:48;98121.77;;;19.96;49.28
74466;BME280;62916;50.044;15.938;2024-03-29T07:35:19;98116.80;;;19.96;48.94
74466;BME280;62916;50.044;15.938;2024-03-29T07:37:49;98114.36;;;19.96;48.37
74466;BME280;62916;50.044;15.938;2024-03-29T07:40:20;98107.44;;;19.95;47.87
74466;BME280;62916;50.044;15.938;2024-03-29T07:42:51;98092.02;;;19.94;47.19
74466;BME280;62916;50.044;15.938;2024-03-29T07:45:22;98080.73;;;19.93;47.01
74466;BME280;62916;50.044;15.938;2024-03-29T07:47:53;98084.01;;;19.92;46.79
74466;BME280;62916;50.044;15.938;2024-03-29T07:50:23;98084.48;;;19.92;46.70
74466;BME280;62916;50.044;15.938;2024-03-29T07:52:55;98084.70;;;19.93;46.85
74466;BME280;62916;50.044;15.938;2024-03-29T07:55:26;98084.09;;;19.94;46.93
74466;BME280;62916;50.044;15.938;2024-03-29T07:57:57;98091.16;;;19.97;46.92
74466;BME280;62916;50.044;15.938;2024-03-29T08:00:30;98093.15;;;19.98;47.04
74466;BME280;62916;50.044;15.938;2024-03-29T08:03:02;98086.53;;;19.99;47.21
74466;BME280;62916;50.044;15.938;2024-03-29T08:05:33;98086.48;;;20.00;47.06
74466;BME280;62916;50.044;15.938;2024-03-29T08:08:05;98093.15;;;20.00;46.84
74466;BME280;62916;50.044;15.938;2024-03-29T08:10:36;98097.13;;;19.99;46.62
74466;BME280;62916;50.044;15.938;2024-03-29T08:13:06;98098.52;;;19.98;46.35
74466;BME280;62916;50.044;15.938;2024-03-29T08:15:38;98084.98;;;19.97;46.29
74466;BME280;62916;50.044;15.938;2024-03-29T08:18:08;98081.25;;;19.96;46.29
74466;BME280;62916;50.044;15.938;2024-03-29T08:20:39;98075.25;;;19.94;46.03
74466;BME280;62916;50.044;15.938;2024-03-29T08:23:10;98075.42;;;19.93;45.93
74466;BME280;62916;50.044;15.938;2024-03-29T08:25:41;98075.23;;;19.92;45.72
74466;BME280;62916;50.044;15.938;2024-03-29T08:28:11;98073.20;;;19.92;45.45
74466;BME280;62916;50.044;15.938;2024-03-29T08:30:42;98066.76;;;19.91;45.23
74466;BME280;62916;50.044;15.938;2024-03-29T08:33:13;98066.13;;;19.91;45.19
74466;BME280;62916;50.044;15.938;2024-03-29T08:35:44;98064.27;;;19.93;45.10
74466;BME280;62916;50.044;15.938;2024-03-29T08:38:14;98062.53;;;19.94;44.87
74466;BME280;62916;50.044;15.938;2024-03-29T08:40:45;98051.59;;;19.94;44.72
74466;BME280;62916;50.044;15.938;2024-03-29T08:43:17;98047.96;;;19.94;44.86
74466;BME280;62916;50.044;15.938;2024-03-29T08:45:48;98054.81;;;19.98;44.53
74466;BME280;62916;50.044;15.938;2024-03-29T08:48:21;98058.39;;;19.99;44.44
74466;BME280;62916;50.044;15.938;2024-03-29T08:50:52;98061.16;;;20.00;44.35
74466;BME280;62916;50.044;15.938;2024-03-29T08:53:23;98056.55;;;20.01;44.16
74466;BME280;62916;50.044;15.938;2024-03-29T08:55:56;98054.02;;;20.03;44.06
74466;BME280;62916;50.044;15.938;2024-03-29T08:58:26;98044.19;;;20.04;44.01
74466;BME280;62916;50.044;15.938;2024-03-29T09:00:57;98032.97;;;20.05;43.82
74466;BME280;62916;50.044;15.938;2024-03-29T09:03:30;98032.29;;;20.07;43.68
74466;BME280;62916;50.044;15.938;2024-03-29T09:06:01;98025.10;;;20.07;43.38
74466;BME280;62916;50.044;15.938;2024-03-29T09:08:32;98017.08;;;20.10;43.27
74466;BME280;62916;50.044;15.938;2024-03-29T09:11:05;98017.56;;;20.12;43.32
74466;BME280;62916;50.044;15.938;2024-03-29T09:13:35;98024.20;;;20.13;43.11
74466;BME280;62916;50.044;15.938;2024-03-29T09:16:07;98030.45;;;20.17;43.00
74466;BME280;62916;50.044;15.938;2024-03-29T09:18:37;98026.69;;;20.20;42.89
74466;BME280;62916;50.044;15.938;2024-03-29T09:21:08;98026.90;;;20.23;42.80
74466;BME280;62916;50.044;15.938;2024-03-29T09:23:40;98027.00;;;20.26;42.68
74466;BME280;62916;50.044;15.938;2024-03-29T09:26:11;98024.33;;;20.28;42.62
74466;BME280;62916;50.044;15.938;2024-03-29T09:28:43;98015.99;;;20.31;42.43
74466;BME280;62916;50.044;15.938;2024-03-29T09:31:14;98021.02;;;20.33;42.32
74466;BME280;62916;50.044;15.938;2024-03-29T09:33:44;98018.06;;;20.36;42.20
74466;BME280;62916;50.044;15.938;2024-03-29T09:36:16;98018.73;;;20.38;42.02
74466;BME280;62916;50.044;15.938;2024-03-29T09:38:47;98027.59;;;20.41;41.96
74466;BME280;62916;50.044;15.938;2024-03-29T09:41:18;98035.80;;;20.43;41.88
74466;BME280;62916;50.044;15.938;2024-03-29T09:43:49;98031.21;;;20.45;41.48
74466;BME280;62916;50.044;15.938;2024-03-29T09:46:25;98020.20;;;20.46;41.37
74466;BME280;62916;50.044;15.938;2024-03-29T09:48:56;98007.64;;;20.48;41.25
74466;BME280;62916;50.044;15.938;2024-03-29T09:51:28;98000.48;;;20.48;41.08
74466;BME280;62916;50.044;15.938;2024-03-29T09:54:00;97990.23;;;20.47;40.95
74466;BME280;62916;50.044;15.938;2024-03-29T09:56:32;97977.21;;;20.47;40.91
74466;BME280;62916;50.044;15.938;2024-03-29T09:59:03;97968.56;;;20.48;40.75
74466;BME280;62916;50.044;15.938;2024-03-29T10:01:35;97970.38;;;20.49;40.70
74466;BME280;62916;50.044;15.938;2024-03-29T10:04:07;97979.88;;;20.50;40.68
74466;BME280;62916;50.044;15.938;2024-03-29T10:06:39;97977.66;;;20.51;40.34
74466;BME280;62916;50.044;15.938;2024-03-29T10:09:12;97974.48;;;20.51;40.50
74466;BME280;62916;50.044;15.938;2024-03-29T10:11:43;97972.44;;;20.53;40.60
74466;BME280;62916;50.044;15.938;2024-03-29T10:14:14;97973.76;;;20.54;40.53
74466;BME280;62916;50.044;15.938;2024-03-29T10:16:45;97962.80;;;20.53;40.48
74466;BME280;62916;50.044;15.938;2024-03-29T10:19:19;97956.55;;;20.54;40.14
74466;BME280;62916;50.044;15.938;2024-03-29T10:21:51;97955.94;;;20.55;40.52
74466;BME280;62916;50.044;15.938;2024-03-29T10:24:22;97954.02;;;20.55;40.28
74466;BME280;62916;50.044;15.938;2024-03-29T10:26:52;97948.55;;;20.55;40.44
74466;BME280;62916;50.044;15.938;2024-03-29T10:29:29;97945.75;;;20.56;40.39
74466;BME280;62916;50.044;15.938;2024-03-29T10:31:59;97939.39;;;20.56;40.38
74466;BME280;62916;50.044;15.938;2024-03-29T10:34:30;97936.80;;;20.56;40.47
74466;BME280;62916;50.044;15.938;2024-03-29T10:37:05;97933.36;;;20.56;40.48
74466;BME280;62916;50.044;15.938;2024-03-29T10:39:36;97928.16;;;20.58;40.45
74466;BME280;62916;50.044;15.938;2024-03-29T10:42:07;97923.16;;;20.57;40.43
74466;BME280;62916;50.044;15.938;2024-03-29T10:44:41;97921.95;;;20.59;40.35
74466;BME280;62916;50.044;15.938;2024-03-29T10:47:14;97920.52;;;20.60;40.35
74466;BME280;62916;50.044;15.938;2024-03-29T10:49:50;97917.42;;;20.61;40.40
74466;BME280;62916;50.044;15.938;2024-03-29T10:52:22;97905.13;;;20.61;40.29
74466;BME280;62916;50.044;15.938;2024-03-29T10:54:55;97898.30;;;20.62;40.28
74466;BME280;62916;50.044;15.938;2024-03-29T10:57:28;97899.15;;;20.63;40.13
74466;BME280;62916;50.044;15.938;2024-03-29T11:00:03;97897.62;;;20.63;40.28
74466;BME280;62916;50.044;15.938;2024-03-29T11:02:49;97895.65;;;20.65;40.11
74466;BME280;62916;50.044;15.938;2024-03-29T11:05:22;97889.73;;;20.66;40.13
74466;BME280;62916;50.044;15.938;2024-03-29T11:07:54;97885.08;;;20.66;40.03
74466;BME280;62916;50.044;15.938;2024-03-29T11:10:28;97893.39;;;20.67;40.21
74466;BME280;62916;50.044;15.938;2024-03-29T11:13:05;97898.10;;;20.68;40.13
74466;BME280;62916;50.044;15.938;2024-03-29T11:15:42;97904.42;;;20.70;40.05
74466;BME280;62916;50.044;15.938;2024-03-29T11:18:15;97902.10;;;20.70;40.01
74466;BME280;62916;50.044;15.938;2024-03-29T11:20:48;97898.67;;;20.71;39.88
74466;BME280;62916;50.044;15.938;2024-03-29T11:23:21;97899.33;;;20.71;39.79
74466;BME280;62916;50.044;15.938;2024-03-29T11:25:54;97886.70;;;20.71;39.83
74466;BME280;62916;50.044;15.938;2024-03-29T11:28:29;97890.58;;;20.71;39.94
74466;BME280;62916;50.044;15.938;2024-03-29T11:31:03;97893.66;;;20.72;39.93
74466;BME280;62916;50.044;15.938;2024-03-29T11:33:35;97891.10;;;20.73;39.69
74466;BME280;62916;50.044;15.938;2024-03-29T11:36:12;97888.21;;;20.73;39.89
74466;BME280;62916;50.044;15.938;2024-03-29T11:38:44;97886.38;;;20.73;39.83
74466;BME280;62916;50.044;15.938;2024-03-29T11:41:17;97873.38;;;20.75;39.83
74466;BME280;62916;50.044;15.938;2024-03-29T11:43:48;97853.39;;;20.74;39.69
74466;BME280;62916;50.044;15.938;2024-03-29T11:46:19;97848.70;;;20.76;39.75
74466;BME280;62916;50.044;15.938;2024-03-29T11:48:50;97847.11;;;20.77;39.93
74466;BME280;62916;50.044;15.938;2024-03-29T11:51:22;97838.05;;;20.78;40.03
74466;BME280;62916;50.044;15.938;2024-03-29T11:53:54;97832.74;;;20.78;40.16
74466;BME280;62916;50.044;15.938;2024-03-29T11:56:26;97837.46;;;20.79;40.30
74466;BME280;62916;50.044;15.938;2024-03-29T11:58:56;97839.04;;;20.81;40.07
74466;BME280;62916;50.044;15.938;2024-03-29T12:01:29;97840.82;;;20.81;40.26
74466;BME280;62916;50.044;15.938;2024-03-29T12:04:01;97834.55;;;20.81;40.08
74466;BME280;62916;50.044;15.938;2024-03-29T12:06:32;97835.14;;;20.82;40.42
74466;BME280;62916;50.044;15.938;2024-03-29T12:09:03;97840.08;;;20.83;40.20
74466;BME280;62916;50.044;15.938;2024-03-29T12:11:35;97836.65;;;20.84;40.41
74466;BME280;62916;50.044;15.938;2024-03-29T12:14:13;97836.02;;;20.84;40.36
74466;BME280;62916;50.044;15.938;2024-03-29T12:16:47;97846.52;;;20.85;40.49
74466;BME280;62916;50.044;15.938;2024-03-29T12:19:33;97858.27;;;20.85;40.41
74466;BME280;62916;50.044;15.938;2024-03-29T12:22:07;97863.66;;;20.85;40.43
74466;BME280;62916;50.044;15.938;2024-03-29T12:24:38;97865.58;;;20.84;40.50
74466;BME280;62916;50.044;15.938;2024-03-29T12:27:09;97873.27;;;20.85;40.45
74466;BME280;62916;50.044;15.938;2024-03-29T12:29:40;97878.90;;;20.85;40.61
74466;BME280;62916;50.044;15.938;2024-03-29T12:32:11;97882.66;;;20.85;40.73
74466;BME280;62916;50.044;15.938;2024-03-29T12:34:42;97886.31;;;20.86;40.53
74466;BME280;62916;50.044;15.938;2024-03-29T12:37:13;97882.52;;;20.86;40.66
74466;BME280;62916;50.044;15.938;2024-03-29T12:39:44;97888.24;;;20.86;40.57
74466;BME280;62916;50.044;15.938;2024-03-29T12:42:15;97891.23;;;20.86;40.68
74466;BME280;62916;50.044;15.938;2024-03-29T12:44:46;97884.64;;;20.87;40.66
74466;BME280;62916;50.044;15.938;2024-03-29T12:47:17;97886.48;;;20.87;40.62
74466;BME280;62916;50.044;15.938;2024-03-29T12:49:49;97891.23;;;20.86;40.65
74466;BME280;62916;50.044;15.938;2024-03-29T12:52:20;97891.30;;;20.85;40.68
74466;BME280;62916;50.044;15.938;2024-03-29T12:54:50;97894.56;;;20.84;40.51
74466;BME280;62916;50.044;15.938;2024-03-29T12:57:21;97893.77;;;20.85;40.67
74466;BME280;62916;50.044;15.938;2024-03-29T12:59:52;97895.79;;;20.85;40.72
74466;BME280;62916;50.044;15.938;2024-03-29T13:02:23;97896.79;;;20.84;40.87
74466;BME280;62916;50.044;15.938;2024-03-29T13:04:54;97902.20;;;20.84;40.78
74466;BME280;62916;50.044;15.938;2024-03-29T13:07:25;97900.83;;;20.84;40.77
74466;BME280;62916;50.044;15.938;2024-03-29T13:09:56;97904.10;;;20.85;40.95
74466;BME280;62916;50.044;15.938;2024-03-29T13:12:28;97908.71;;;20.86;40.68